sensor_id;sensor_type;location;lat;lon;timestamp;noise_LAeq;noise_LA_min;noise_LA_max;noise_LA01;noise_LA95
72686;Laerm;61365;52.162;4.500;2023-07-29T00:01:16;42.08;31.69;53.34;;
72686;Laerm;61365;52.162;4.500;2023-07-29T00:03:42;42.06;32.09;53.36;;
72686;Laerm;61365;52.162;4.500;2023-07-29T00:06:09;42.13;32.03;52.59;;
72686;Laerm;61365;52.162;4.500;2023-07-29T00:08:35;42.10;31.44;52.48;;
72686;Laerm;61365;52.162;4.500;2023-07-29T00:11:01;42.18;32.20;51.91;;
72686;Laerm;61365;52.162;4.500;2023-07-29T00:13:27;42.08;31.89;52.18;;
72686;Laerm;61365;52.162;4.500;2023-07-29T00:15:54;42.11;31.65;53.21;;
72686;Laerm;61365;52.162;4.500;2023-07-29T00:18:22;42.07;31.87;52.78;;
72686;Laerm;61365;52.162;4.500;2023-07-29T00:20:49;42.15;31.65;51.84;;
72686;Laerm;61365;52.162;4.500;2023-07-29T00:23:17;42.19;31.96;54.84;;
72686;Laerm;61365;52.162;4.500;2023-07-29T00:25:45;42.19;32.62;52.17;;
72686;Laerm;61365;52.162;4.500;2023-07-29T00:28:12;42.25;31.92;51.79;;
72686;Laerm;61365;52.162;4.500;2023-07-29T00:30:38;42.06;31.40;51.55;;
72686;Laerm;61365;52.162;4.500;2023-07-29T00:33:04;42.07;31.25;51.61;;
72686;Laerm;61365;52.162;4.500;2023-07-29T00:35:30;42.00;31.94;52.36;;
72686;Laerm;61365;52.162;4.500;2023-07-29T00:37:56;42.06;31.27;52.83;;
72686;Laerm;61365;52.162;4.500;2023-07-29T00:40:22;41.98;31.27;52.68;;
72686;Laerm;61365;52.162;4.500;2023-07-29T00:42:49;42.08;31.87;53.05;;
72686;Laerm;61365;52.162;4.500;2023-07-29T00:45:16;42.15;32.23;53.06;;
72686;Laerm;61365;52.162;4.500;2023-07-29T00:47:42;41.83;31.59;52.09;;
72686;Laerm;61365;52.162;4.500;2023-07-29T00:50:11;41.63;31.83;53.37;;
72686;Laerm;61365;52.162;4.500;2023-07-29T00:52:37;41.60;31.54;52.42;;
72686;Laerm;61365;52.162;4.500;2023-07-29T00:55:05;41.79;31.64;51.79;;
72686;Laerm;61365;52.162;4.500;2023-07-29T00:57:32;41.84;31.70;50.87;;
72686;Laerm;61365;52.162;4.500;2023-07-29T01:00:00;41.89;31.79;52.43;;
72686;Laerm;61365;52.162;4.500;2023-07-29T01:02:26;41.94;31.93;53.52;;
72686;Laerm;61365;52.162;4.500;2023-07-29T01:04:57;41.80;31.02;51.88;;
72686;Laerm;61365;52.162;4.500;2023-07-29T01:07:32;41.56;31.79;52.36;;
72686;Laerm;61365;52.162;4.500;2023-07-29T01:13:10;41.55;31.27;52.08;;
72686;Laerm;61365;52.162;4.500;2023-07-29T01:15:55;41.70;31.96;52.62;;
72686;Laerm;61365;52.162;4.500;2023-07-29T01:18:30;41.76;31.62;51.90;;
72686;Laerm;61365;52.162;4.500;2023-07-29T01:21:03;41.78;31.50;52.36;;
72686;Laerm;61365;52.162;4.500;2023-07-29T01:23:33;41.79;31.70;54.13;;
72686;Laerm;61365;52.162;4.500;2023-07-29T01:26:00;41.79;32.04;52.38;;
72686;Laerm;61365;52.162;4.500;2023-07-29T01:28:27;41.75;31.53;52.78;;
72686;Laerm;61365;52.162;4.500;2023-07-29T01:31:09;41.73;31.90;54.61;;
72686;Laerm;61365;52.162;4.500;2023-07-29T01:33:50;41.83;31.16;52.40;;
72686;Laerm;61365;52.162;4.500;2023-07-29T01:36:21;41.82;31.93;50.83;;
72686;Laerm;61365;52.162;4.500;2023-07-29T01:38:49;41.76;31.90;51.98;;
72686;Laerm;61365;52.162;4.500;2023-07-29T01:41:17;41.77;31.60;54.83;;
72686;Laerm;61365;52.162;4.500;2023-07-29T01:43:44;41.84;31.75;51.96;;
72686;Laerm;61365;52.162;4.500;2023-07-29T01:46:15;41.98;31.73;52.30;;
72686;Laerm;61365;52.162;4.500;2023-07-29T01:48:42;41.88;31.47;53.57;;
72686;Laerm;61365;52.162;4.500;2023-07-29T01:51:11;41.94;31.40;52.84;;
72686;Laerm;61365;52.162;4.500;2023-07-29T01:53:37;41.92;31.31;53.59;;
72686;Laerm;61365;52.162;4.500;2023-07-29T01:56:03;41.86;31.52;51.83;;
72686;Laerm;61365;52.162;4.500;2023-07-29T01:58:29;41.93;31.68;52.28;;
72686;Laerm;61365;52.162;4.500;2023-07-29T02:00:56;41.88;31.42;51.86;;
72686;Laerm;61365;52.162;4.500;2023-07-29T02:03:22;41.87;31.57;54.22;;
72686;Laerm;61365;52.162;4.500;2023-07-29T02:05:48;41.89;31.75;52.27;;
72686;Laerm;61365;52.162;4.500;2023-07-29T02:08:14;41.88;31.26;51.64;;
72686;Laerm;61365;52.162;4.500;2023-07-29T02:10:40;42.05;31.27;53.81;;
72686;Laerm;61365;52.162;4.500;2023-07-29T02:13:08;42.09;32.73;52.90;;
72686;Laerm;61365;52.162;4.500;2023-07-29T02:15:35;42.00;31.80;51.52;;
72686;Laerm;61365;52.162;4.500;2023-07-29T02:18:01;41.98;31.64;52.96;;
72686;Laerm;61365;52.162;4.500;2023-07-29T02:20:27;41.99;31.55;53.48;;
72686;Laerm;61365;52.162;4.500;2023-07-29T02:22:54;42.08;31.78;53.10;;
72686;Laerm;61365;52.162;4.500;2023-07-29T02:25:20;42.04;32.16;52.59;;
72686;Laerm;61365;52.162;4.500;2023-07-29T02:27:46;42.12;32.70;52.53;;
72686;Laerm;61365;52.162;4.500;2023-07-29T02:30:12;42.02;31.87;51.81;;
72686;Laerm;61365;52.162;4.500;2023-07-29T02:32:38;42.00;32.39;53.16;;
72686;Laerm;61365;52.162;4.500;2023-07-29T02:35:05;41.97;32.08;53.84;;
72686;Laerm;61365;52.162;4.500;2023-07-29T02:37:32;42.06;32.44;53.39;;
72686;Laerm;61365;52.162;4.500;2023-07-29T02:39:58;42.01;31.68;52.01;;
72686;Laerm;61365;52.162;4.500;2023-07-29T02:42:24;42.12;31.72;53.55;;
72686;Laerm;61365;52.162;4.500;2023-07-29T02:44:50;42.06;31.44;54.25;;
72686;Laerm;61365;52.162;4.500;2023-07-29T02:47:16;42.04;32.25;53.58;;
72686;Laerm;61365;52.162;4.500;2023-07-29T02:49:42;42.13;32.71;54.51;;
72686;Laerm;61365;52.162;4.500;2023-07-29T02:52:08;42.06;31.33;52.13;;
72686;Laerm;61365;52.162;4.500;2023-07-29T02:54:34;42.04;32.04;52.10;;
72686;Laerm;61365;52.162;4.500;2023-07-29T02:57:00;42.11;32.68;53.52;;
72686;Laerm;61365;52.162;4.500;2023-07-29T02:59:27;42.11;31.86;54.97;;
72686;Laerm;61365;52.162;4.500;2023-07-29T03:01:53;42.05;32.78;56.08;;
72686;Laerm;61365;52.162;4.500;2023-07-29T03:04:19;42.14;32.60;52.93;;
72686;Laerm;61365;52.162;4.500;2023-07-29T03:06:45;42.03;31.82;54.27;;
72686;Laerm;61365;52.162;4.500;2023-07-29T03:09:13;42.05;32.71;52.79;;
72686;Laerm;61365;52.162;4.500;2023-07-29T03:11:39;42.03;32.24;55.05;;
72686;Laerm;61365;52.162;4.500;2023-07-29T03:14:06;42.06;32.51;53.44;;
72686;Laerm;61365;52.162;4.500;2023-07-29T03:16:32;42.01;31.82;52.80;;
72686;Laerm;61365;52.162;4.500;2023-07-29T03:18:58;42.04;31.72;53.28;;
72686;Laerm;61365;52.162;4.500;2023-07-29T03:21:26;42.04;33.01;53.83;;
72686;Laerm;61365;52.162;4.500;2023-07-29T03:23:52;41.94;32.76;54.71;;
72686;Laerm;61365;52.162;4.500;2023-07-29T03:26:18;41.99;32.11;53.10;;
72686;Laerm;61365;52.162;4.500;2023-07-29T03:28:44;41.91;32.48;53.41;;
72686;Laerm;61365;52.162;4.500;2023-07-29T03:31:10;41.92;32.04;53.51;;
72686;Laerm;61365;52.162;4.500;2023-07-29T03:33:37;41.97;32.62;54.36;;
72686;Laerm;61365;52.162;4.500;2023-07-29T03:36:03;41.96;32.93;53.34;;
72686;Laerm;61365;52.162;4.500;2023-07-29T03:38:29;41.85;32.75;53.93;;
72686;Laerm;61365;52.162;4.500;2023-07-29T03:40:56;41.87;31.87;53.31;;
72686;Laerm;61365;52.162;4.500;2023-07-29T03:43:22;41.87;32.98;53.01;;
72686;Laerm;61365;52.162;4.500;2023-07-29T03:45:48;41.92;31.22;54.60;;
72686;Laerm;61365;52.162;4.500;2023-07-29T03:48:15;41.87;32.51;52.77;;
72686;Laerm;61365;52.162;4.500;2023-07-29T03:50:41;41.92;33.13;53.90;;
72686;Laerm;61365;52.162;4.500;2023-07-29T03:53:07;41.84;32.51;53.29;;
72686;Laerm;61365;52.162;4.500;2023-07-29T03:55:35;41.92;32.00;52.69;;
72686;Laerm;61365;52.162;4.500;2023-07-29T03:58:01;41.88;31.93;53.15;;
72686;Laerm;61365;52.162;4.500;2023-07-29T04:00:27;41.85;32.71;52.85;;
72686;Laerm;61365;52.162;4.500;2023-07-29T04:02:53;41.93;33.09;51.92;;
72686;Laerm;61365;52.162;4.500;2023-07-29T04:05:20;41.79;32.46;53.11;;
72686;Laerm;61365;52.162;4.500;2023-07-29T04:07:46;41.73;32.75;53.45;;
72686;Laerm;61365;52.162;4.500;2023-07-29T04:10:12;41.75;32.34;53.36;;
72686;Laerm;61365;52.162;4.500;2023-07-29T04:12:39;41.81;33.00;53.97;;
72686;Laerm;61365;52.162;4.500;2023-07-29T04:15:05;41.72;32.68;53.09;;
72686;Laerm;61365;52.162;4.500;2023-07-29T04:17:32;41.99;32.87;53.05;;
72686;Laerm;61365;52.162;4.500;2023-07-29T04:19:58;42.14;31.73;53.77;;
72686;Laerm;61365;52.162;4.500;2023-07-29T04:22:24;42.21;32.44;53.59;;
72686;Laerm;61365;52.162;4.500;2023-07-29T04:24:50;41.88;31.97;52.10;;
72686;Laerm;61365;52.162;4.500;2023-07-29T04:27:16;41.69;32.68;53.71;;
72686;Laerm;61365;52.162;4.500;2023-07-29T04:29:42;41.72;32.63;52.03;;
72686;Laerm;61365;52.162;4.500;2023-07-29T04:32:08;41.76;32.67;53.52;;
72686;Laerm;61365;52.162;4.500;2023-07-29T04:34:35;41.58;32.16;52.68;;
72686;Laerm;61365;52.162;4.500;2023-07-29T04:37:01;41.71;32.25;54.09;;
72686;Laerm;61365;52.162;4.500;2023-07-29T04:39:27;41.64;33.25;53.67;;
72686;Laerm;61365;52.162;4.500;2023-07-29T04:41:53;41.63;32.05;52.41;;
72686;Laerm;61365;52.162;4.500;2023-07-29T04:44:19;41.48;32.60;51.98;;
72686;Laerm;61365;52.162;4.500;2023-07-29T04:46:45;41.68;31.85;52.89;;
72686;Laerm;61365;52.162;4.500;2023-07-29T04:49:11;41.57;32.08;53.78;;
72686;Laerm;61365;52.162;4.500;2023-07-29T04:51:37;41.52;32.80;54.31;;
72686;Laerm;61365;52.162;4.500;2023-07-29T04:54:04;41.47;32.82;52.64;;
72686;Laerm;61365;52.162;4.500;2023-07-29T04:56:30;41.48;31.85;52.46;;
72686;Laerm;61365;52.162;4.500;2023-07-29T04:58:56;41.54;31.73;52.52;;
72686;Laerm;61365;52.162;4.500;2023-07-29T05:01:22;41.68;31.84;51.86;;
72686;Laerm;61365;52.162;4.500;2023-07-29T05:03:48;41.72;33.02;52.31;;
72686;Laerm;61365;52.162;4.500;2023-07-29T05:06:15;41.75;32.57;51.66;;
72686;Laerm;61365;52.162;4.500;2023-07-29T05:08:41;41.59;32.62;53.15;;
72686;Laerm;61365;52.162;4.500;2023-07-29T05:11:07;41.54;32.30;53.72;;
72686;Laerm;61365;52.162;4.500;2023-07-29T05:13:33;41.47;31.78;52.01;;
72686;Laerm;61365;52.162;4.500;2023-07-29T05:15:59;41.52;32.74;53.41;;
72686;Laerm;61365;52.162;4.500;2023-07-29T05:18:25;41.53;32.90;52.91;;
72686;Laerm;61365;52.162;4.500;2023-07-29T05:20:51;41.47;33.29;53.30;;
72686;Laerm;61365;52.162;4.500;2023-07-29T05:23:18;41.65;32.38;52.36;;
72686;Laerm;61365;52.162;4.500;2023-07-29T05:25:44;41.66;33.07;55.09;;
72686;Laerm;61365;52.162;4.500;2023-07-29T05:28:10;41.44;32.56;52.46;;
72686;Laerm;61365;52.162;4.500;2023-07-29T05:30:36;41.54;32.98;53.09;;
72686;Laerm;61365;52.162;4.500;2023-07-29T05:33:06;41.51;32.39;53.04;;
72686;Laerm;61365;52.162;4.500;2023-07-29T05:35:34;41.85;32.52;54.63;;
72686;Laerm;61365;52.162;4.500;2023-07-29T05:38:00;41.99;32.46;51.83;;
72686;Laerm;61365;52.162;4.500;2023-07-29T05:40:26;42.00;32.18;52.57;;
72686;Laerm;61365;52.162;4.500;2023-07-29T05:42:53;42.00;32.45;54.16;;
72686;Laerm;61365;52.162;4.500;2023-07-29T05:45:19;41.97;34.80;55.03;;
72686;Laerm;61365;52.162;4.500;2023-07-29T05:47:45;41.87;32.84;53.94;;
72686;Laerm;61365;52.162;4.500;2023-07-29T05:50:11;41.98;32.21;52.93;;
72686;Laerm;61365;52.162;4.500;2023-07-29T05:52:37;42.04;32.47;53.63;;
72686;Laerm;61365;52.162;4.500;2023-07-29T05:55:03;42.04;32.14;54.22;;
72686;Laerm;61365;52.162;4.500;2023-07-29T05:57:30;41.91;32.33;52.33;;
72686;Laerm;61365;52.162;4.500;2023-07-29T05:59:56;42.00;32.19;54.44;;
72686;Laerm;61365;52.162;4.500;2023-07-29T06:02:22;41.84;31.42;54.84;;
72686;Laerm;61365;52.162;4.500;2023-07-29T06:04:48;41.98;32.94;53.42;;
72686;Laerm;61365;52.162;4.500;2023-07-29T06:07:14;41.85;31.77;54.72;;
72686;Laerm;61365;52.162;4.500;2023-07-29T06:09:40;41.91;32.17;52.84;;
72686;Laerm;61365;52.162;4.500;2023-07-29T06:12:07;41.94;31.44;52.27;;
72686;Laerm;61365;52.162;4.500;2023-07-29T06:14:33;42.00;31.87;52.32;;
72686;Laerm;61365;52.162;4.500;2023-07-29T06:17:01;42.14;32.78;54.70;;
72686;Laerm;61365;52.162;4.500;2023-07-29T06:19:28;41.97;32.88;52.32;;
72686;Laerm;61365;52.162;4.500;2023-07-29T06:21:55;41.91;32.17;52.12;;
72686;Laerm;61365;52.162;4.500;2023-07-29T06:24:21;41.98;32.48;52.40;;
72686;Laerm;61365;52.162;4.500;2023-07-29T06:26:47;41.99;32.28;53.23;;
72686;Laerm;61365;52.162;4.500;2023-07-29T06:29:13;41.97;33.07;54.39;;
72686;Laerm;61365;52.162;4.500;2023-07-29T06:31:40;42.11;32.18;53.90;;
72686;Laerm;61365;52.162;4.500;2023-07-29T06:34:06;42.14;33.01;53.02;;
72686;Laerm;61365;52.162;4.500;2023-07-29T06:36:32;42.01;32.47;53.04;;
72686;Laerm;61365;52.162;4.500;2023-07-29T06:38:58;41.89;32.56;53.05;;
72686;Laerm;61365;52.162;4.500;2023-07-29T06:41:24;41.96;32.88;53.54;;
72686;Laerm;61365;52.162;4.500;2023-07-29T06:43:50;42.23;32.55;53.24;;
72686;Laerm;61365;52.162;4.500;2023-07-29T06:46:16;41.97;32.23;53.13;;
72686;Laerm;61365;52.162;4.500;2023-07-29T06:48:43;42.09;32.64;53.31;;
72686;Laerm;61365;52.162;4.500;2023-07-29T06:51:09;42.18;31.83;51.42;;
72686;Laerm;61365;52.162;4.500;2023-07-29T06:53:35;41.83;32.04;53.27;;
72686;Laerm;61365;52.162;4.500;2023-07-29T06:56:01;41.89;32.52;52.36;;
72686;Laerm;61365;52.162;4.500;2023-07-29T06:58:27;41.88;32.64;52.08;;
72686;Laerm;61365;52.162;4.500;2023-07-29T07:00:54;41.87;32.35;52.45;;
72686;Laerm;61365;52.162;4.500;2023-07-29T07:03:20;41.86;32.48;52.50;;
72686;Laerm;61365;52.162;4.500;2023-07-29T07:05:46;41.88;32.18;52.82;;
72686;Laerm;61365;52.162;4.500;2023-07-29T07:08:12;41.82;31.64;52.58;;
72686;Laerm;61365;52.162;4.500;2023-07-29T07:10:38;41.85;32.21;53.69;;
72686;Laerm;61365;52.162;4.500;2023-07-29T07:13:04;41.73;31.57;50.73;;
72686;Laerm;61365;52.162;4.500;2023-07-29T07:15:30;41.99;32.49;53.03;;
72686;Laerm;61365;52.162;4.500;2023-07-29T07:17:57;41.89;32.40;50.67;;
72686;Laerm;61365;52.162;4.500;2023-07-29T07:20:23;41.53;30.95;52.45;;
72686;Laerm;61365;52.162;4.500;2023-07-29T07:22:50;41.43;31.78;50.80;;
72686;Laerm;61365;52.162;4.500;2023-07-29T07:25:16;41.44;31.63;52.66;;
72686;Laerm;61365;52.162;4.500;2023-07-29T07:27:42;41.47;31.51;51.24;;
72686;Laerm;61365;52.162;4.500;2023-07-29T07:30:08;41.52;32.36;51.57;;
72686;Laerm;61365;52.162;4.500;2023-07-29T07:32:35;41.39;31.55;49.79;;
72686;Laerm;61365;52.162;4.500;2023-07-29T07:35:01;41.34;31.86;51.34;;
72686;Laerm;61365;52.162;4.500;2023-07-29T07:37:27;41.52;31.54;52.59;;
72686;Laerm;61365;52.162;4.500;2023-07-29T07:39:53;41.51;31.61;51.04;;
72686;Laerm;61365;52.162;4.500;2023-07-29T07:42:20;41.54;31.53;50.33;;
72686;Laerm;61365;52.162;4.500;2023-07-29T07:44:46;41.45;31.46;51.79;;
72686;Laerm;61365;52.162;4.500;2023-07-29T07:47:12;41.49;31.30;51.61;;
72686;Laerm;61365;52.162;4.500;2023-07-29T07:49:41;41.86;31.38;50.57;;
72686;Laerm;61365;52.162;4.500;2023-07-29T07:52:07;41.52;31.21;50.20;;
72686;Laerm;61365;52.162;4.500;2023-07-29T07:54:37;41.80;31.64;50.15;;
72686;Laerm;61365;52.162;4.500;2023-07-29T07:57:03;41.85;31.91;50.74;;
72686;Laerm;61365;52.162;4.500;2023-07-29T07:59:29;41.81;31.59;52.43;;
72686;Laerm;61365;52.162;4.500;2023-07-29T08:01:55;41.85;32.47;49.91;;
72686;Laerm;61365;52.162;4.500;2023-07-29T08:04:22;41.83;31.60;52.41;;
72686;Laerm;61365;52.162;4.500;2023-07-29T08:06:48;41.95;31.52;50.11;;
72686;Laerm;61365;52.162;4.500;2023-07-29T08:09:14;41.93;31.33;50.29;;
72686;Laerm;61365;52.162;4.500;2023-07-29T08:11:40;41.62;30.77;50.93;;
72686;Laerm;61365;52.162;4.500;2023-07-29T08:14:07;41.41;31.53;51.86;;
72686;Laerm;61365;52.162;4.500;2023-07-29T08:16:33;41.51;31.44;50.59;;
72686;Laerm;61365;52.162;4.500;2023-07-29T08:18:59;41.68;31.38;54.37;;
72686;Laerm;61365;52.162;4.500;2023-07-29T08:21:26;41.51;31.56;51.12;;
72686;Laerm;61365;52.162;4.500;2023-07-29T08:23:53;41.39;31.92;52.24;;
72686;Laerm;61365;52.162;4.500;2023-07-29T08:26:19;41.55;31.54;51.68;;
72686;Laerm;61365;52.162;4.500;2023-07-29T08:28:45;41.54;31.54;52.24;;
72686;Laerm;61365;52.162;4.500;2023-07-29T08:31:11;41.64;31.60;51.54;;
72686;Laerm;61365;52.162;4.500;2023-07-29T08:33:37;41.71;31.88;55.19;;
72686;Laerm;61365;52.162;4.500;2023-07-29T08:36:03;41.56;31.63;51.21;;
72686;Laerm;61365;52.162;4.500;2023-07-29T08:38:30;41.51;31.74;51.53;;
72686;Laerm;61365;52.162;4.500;2023-07-29T08:41:19;41.56;31.87;51.08;;
72686;Laerm;61365;52.162;4.500;2023-07-29T08:43:52;41.38;31.11;49.33;;
72686;Laerm;61365;52.162;4.500;2023-07-29T08:46:22;41.32;31.35;51.40;;
72686;Laerm;61365;52.162;4.500;2023-07-29T08:48:49;41.45;31.52;50.49;;
72686;Laerm;61365;52.162;4.500;2023-07-29T08:51:20;41.39;31.37;51.54;;
72686;Laerm;61365;52.162;4.500;2023-07-29T08:53:47;41.30;31.49;50.20;;
72686;Laerm;61365;52.162;4.500;2023-07-29T08:56:15;41.32;31.34;50.04;;
72686;Laerm;61365;52.162;4.500;2023-07-29T08:58:42;41.43;31.80;52.64;;
72686;Laerm;61365;52.162;4.500;2023-07-29T09:01:08;41.31;31.36;50.89;;
72686;Laerm;61365;52.162;4.500;2023-07-29T09:03:42;41.32;31.50;51.59;;
72686;Laerm;61365;52.162;4.500;2023-07-29T09:06:08;41.36;31.52;50.70;;
72686;Laerm;61365;52.162;4.500;2023-07-29T09:08:37;41.35;31.54;52.52;;
72686;Laerm;61365;52.162;4.500;2023-07-29T09:11:03;41.24;31.38;50.44;;
72686;Laerm;61365;52.162;4.500;2023-07-29T09:13:32;41.27;31.48;50.93;;
72686;Laerm;61365;52.162;4.500;2023-07-29T09:15:58;41.35;31.66;49.79;;
72686;Laerm;61365;52.162;4.500;2023-07-29T09:18:26;41.50;31.45;53.33;;
72686;Laerm;61365;52.162;4.500;2023-07-29T09:20:53;41.56;31.20;52.12;;
72686;Laerm;61365;52.162;4.500;2023-07-29T09:23:19;41.49;31.11;49.52;;
72686;Laerm;61365;52.162;4.500;2023-07-29T09:25:46;41.48;31.31;52.84;;
72686;Laerm;61365;52.162;4.500;2023-07-29T09:28:16;41.40;31.47;49.72;;
72686;Laerm;61365;52.162;4.500;2023-07-29T09:30:46;41.49;31.38;51.35;;
72686;Laerm;61365;52.162;4.500;2023-07-29T09:33:12;41.52;31.68;50.90;;
72686;Laerm;61365;52.162;4.500;2023-07-29T09:35:38;41.46;31.37;51.26;;
72686;Laerm;61365;52.162;4.500;2023-07-29T09:38:05;41.46;31.43;51.11;;
72686;Laerm;61365;52.162;4.500;2023-07-29T09:40:37;41.48;31.34;52.45;;
72686;Laerm;61365;52.162;4.500;2023-07-29T09:43:04;41.55;31.48;49.84;;
72686;Laerm;61365;52.162;4.500;2023-07-29T09:45:33;41.53;31.36;49.96;;
72686;Laerm;61365;52.162;4.500;2023-07-29T09:48:00;41.57;31.40;49.84;;
72686;Laerm;61365;52.162;4.500;2023-07-29T09:50:27;41.54;31.33;50.82;;
72686;Laerm;61365;52.162;4.500;2023-07-29T09:52:57;41.54;31.36;51.83;;
72686;Laerm;61365;52.162;4.500;2023-07-29T09:55:29;41.49;31.30;50.88;;
72686;Laerm;61365;52.162;4.500;2023-07-29T09:58:00;41.50;31.17;52.39;;
72686;Laerm;61365;52.162;4.500;2023-07-29T10:00:28;41.52;31.41;49.72;;
72686;Laerm;61365;52.162;4.500;2023-07-29T10:02:56;41.49;31.89;51.97;;
72686;Laerm;61365;52.162;4.500;2023-07-29T10:05:25;41.55;31.14;50.43;;
72686;Laerm;61365;52.162;4.500;2023-07-29T10:07:51;41.64;31.74;51.57;;
72686;Laerm;61365;52.162;4.500;2023-07-29T10:10:18;41.60;31.35;51.41;;
72686;Laerm;61365;52.162;4.500;2023-07-29T10:12:44;41.75;31.96;52.42;;
72686;Laerm;61365;52.162;4.500;2023-07-29T10:15:11;41.62;31.87;51.24;;
72686;Laerm;61365;52.162;4.500;2023-07-29T10:17:52;41.62;31.52;52.23;;
72686;Laerm;61365;52.162;4.500;2023-07-29T10:20:23;41.73;31.54;53.81;;
72686;Laerm;61365;52.162;4.500;2023-07-29T10:22:51;41.73;32.21;52.47;;
72686;Laerm;61365;52.162;4.500;2023-07-29T10:25:24;41.58;31.72;55.12;;
72686;Laerm;61365;52.162;4.500;2023-07-29T10:27:57;41.57;31.61;52.10;;
72686;Laerm;61365;52.162;4.500;2023-07-29T10:30:28;41.65;31.80;54.11;;
72686;Laerm;61365;52.162;4.500;2023-07-29T10:33:03;41.65;31.32;52.62;;
72686;Laerm;61365;52.162;4.500;2023-07-29T10:35:32;41.54;32.41;52.47;;
72686;Laerm;61365;52.162;4.500;2023-07-29T10:38:00;41.55;31.73;52.99;;
72686;Laerm;61365;52.162;4.500;2023-07-29T10:40:43;41.48;31.95;53.08;;
72686;Laerm;61365;52.162;4.500;2023-07-29T10:43:11;41.61;31.69;51.86;;
72686;Laerm;61365;52.162;4.500;2023-07-29T10:45:39;41.52;32.02;51.87;;
72686;Laerm;61365;52.162;4.500;2023-07-29T10:51:29;41.60;32.23;50.64;;
72686;Laerm;61365;52.162;4.500;2023-07-29T10:56:48;41.49;31.31;51.06;;
72686;Laerm;61365;52.162;4.500;2023-07-29T11:01:57;41.55;31.76;50.81;;
72686;Laerm;61365;52.162;4.500;2023-07-29T11:04:28;41.62;31.74;51.09;;
72686;Laerm;61365;52.162;4.500;2023-07-29T11:09:55;41.71;32.51;50.79;;
72686;Laerm;61365;52.162;4.500;2023-07-29T11:15:03;41.41;31.55;51.16;;
72686;Laerm;61365;52.162;4.500;2023-07-29T11:17:33;41.50;31.53;51.62;;
72686;Laerm;61365;52.162;4.500;2023-07-29T11:20:01;41.42;31.24;51.26;;
72686;Laerm;61365;52.162;4.500;2023-07-29T11:22:29;41.50;31.66;52.44;;
72686;Laerm;61365;52.162;4.500;2023-07-29T11:24:56;41.81;31.80;51.27;;
72686;Laerm;61365;52.162;4.500;2023-07-29T11:27:22;41.91;32.09;52.83;;
72686;Laerm;61365;52.162;4.500;2023-07-29T11:29:48;41.98;32.43;53.06;;
72686;Laerm;61365;52.162;4.500;2023-07-29T11:32:17;41.91;31.42;53.06;;
72686;Laerm;61365;52.162;4.500;2023-07-29T11:34:43;41.89;32.94;54.07;;
72686;Laerm;61365;52.162;4.500;2023-07-29T11:37:11;41.79;32.77;52.04;;
72686;Laerm;61365;52.162;4.500;2023-07-29T11:39:41;41.87;33.95;54.15;;
72686;Laerm;61365;52.162;4.500;2023-07-29T11:42:11;41.70;33.31;53.75;;
72686;Laerm;61365;52.162;4.500;2023-07-29T11:44:38;41.64;33.25;52.58;;
72686;Laerm;61365;52.162;4.500;2023-07-29T11:47:12;41.67;33.34;53.06;;
72686;Laerm;61365;52.162;4.500;2023-07-29T11:49:39;41.79;33.02;54.83;;
72686;Laerm;61365;52.162;4.500;2023-07-29T11:52:07;41.76;32.63;53.57;;
72686;Laerm;61365;52.162;4.500;2023-07-29T11:54:38;41.36;33.01;53.38;;
72686;Laerm;61365;52.162;4.500;2023-07-29T11:57:08;41.50;33.28;53.67;;
72686;Laerm;61365;52.162;4.500;2023-07-29T11:59:36;41.49;32.58;54.37;;
72686;Laerm;61365;52.162;4.500;2023-07-29T12:02:10;41.37;31.98;52.10;;
72686;Laerm;61365;52.162;4.500;2023-07-29T12:04:41;41.47;31.42;52.47;;
72686;Laerm;61365;52.162;4.500;2023-07-29T12:07:07;41.55;32.73;53.26;;
72686;Laerm;61365;52.162;4.500;2023-07-29T12:09:35;41.53;32.68;53.65;;
72686;Laerm;61365;52.162;4.500;2023-07-29T12:12:05;41.52;32.52;52.51;;
72686;Laerm;61365;52.162;4.500;2023-07-29T12:14:32;41.46;31.73;52.15;;
72686;Laerm;61365;52.162;4.500;2023-07-29T12:17:05;41.47;32.44;51.40;;
72686;Laerm;61365;52.162;4.500;2023-07-29T12:19:35;41.50;31.17;52.38;;
72686;Laerm;61365;52.162;4.500;2023-07-29T12:22:03;41.55;32.00;52.86;;
72686;Laerm;61365;52.162;4.500;2023-07-29T12:24:30;41.60;32.06;52.18;;
72686;Laerm;61365;52.162;4.500;2023-07-29T12:26:57;41.48;32.04;51.40;;
72686;Laerm;61365;52.162;4.500;2023-07-29T12:29:24;41.52;31.38;52.26;;
72686;Laerm;61365;52.162;4.500;2023-07-29T12:31:58;41.50;31.37;51.01;;
72686;Laerm;61365;52.162;4.500;2023-07-29T12:34:26;41.50;31.66;51.74;;
72686;Laerm;61365;52.162;4.500;2023-07-29T12:36:55;41.51;31.68;51.95;;
72686;Laerm;61365;52.162;4.500;2023-07-29T12:39:30;41.56;31.98;50.37;;
72686;Laerm;61365;52.162;4.500;2023-07-29T12:41:59;41.64;31.92;52.03;;
72686;Laerm;61365;52.162;4.500;2023-07-29T12:44:29;41.63;32.21;51.20;;
72686;Laerm;61365;52.162;4.500;2023-07-29T12:46:56;41.71;31.21;52.17;;
72686;Laerm;61365;52.162;4.500;2023-07-29T12:49:22;41.64;32.09;51.36;;
72686;Laerm;61365;52.162;4.500;2023-07-29T12:51:48;41.63;32.10;52.55;;
72686;Laerm;61365;52.162;4.500;2023-07-29T12:54:14;41.56;31.47;51.07;;
72686;Laerm;61365;52.162;4.500;2023-07-29T12:56:40;41.56;31.51;52.91;;
72686;Laerm;61365;52.162;4.500;2023-07-29T12:59:06;41.62;31.11;51.35;;
72686;Laerm;61365;52.162;4.500;2023-07-29T13:01:34;41.61;32.00;51.40;;
72686;Laerm;61365;52.162;4.500;2023-07-29T13:04:00;41.52;31.31;51.50;;
72686;Laerm;61365;52.162;4.500;2023-07-29T13:06:26;41.58;31.79;52.43;;
72686;Laerm;61365;52.162;4.500;2023-07-29T13:08:52;41.59;31.90;52.39;;
72686;Laerm;61365;52.162;4.500;2023-07-29T13:11:18;41.63;32.34;51.65;;
72686;Laerm;61365;52.162;4.500;2023-07-29T13:13:44;41.42;31.54;51.87;;
72686;Laerm;61365;52.162;4.500;2023-07-29T13:16:11;41.31;31.02;52.17;;
72686;Laerm;61365;52.162;4.500;2023-07-29T13:18:39;41.42;31.75;54.63;;
72686;Laerm;61365;52.162;4.500;2023-07-29T13:21:05;41.41;31.68;51.70;;
72686;Laerm;61365;52.162;4.500;2023-07-29T13:23:31;41.39;31.53;51.44;;
72686;Laerm;61365;52.162;4.500;2023-07-29T13:25:57;41.62;32.14;52.32;;
72686;Laerm;61365;52.162;4.500;2023-07-29T13:28:24;41.53;31.16;51.26;;
72686;Laerm;61365;52.162;4.500;2023-07-29T13:30:50;41.60;31.85;51.75;;
72686;Laerm;61365;52.162;4.500;2023-07-29T13:33:16;41.55;31.75;50.89;;
72686;Laerm;61365;52.162;4.500;2023-07-29T13:35:42;41.64;32.01;51.25;;
72686;Laerm;61365;52.162;4.500;2023-07-29T13:38:09;41.62;31.64;51.13;;
72686;Laerm;61365;52.162;4.500;2023-07-29T13:40:35;41.41;31.27;49.81;;
72686;Laerm;61365;52.162;4.500;2023-07-29T13:43:01;41.35;31.29;51.31;;
72686;Laerm;61365;52.162;4.500;2023-07-29T13:45:27;41.43;32.01;50.52;;
72686;Laerm;61365;52.162;4.500;2023-07-29T13:47:53;41.43;31.52;50.44;;
72686;Laerm;61365;52.162;4.500;2023-07-29T13:50:20;41.35;31.43;51.52;;
72686;Laerm;61365;52.162;4.500;2023-07-29T13:52:46;41.43;31.65;51.73;;
72686;Laerm;61365;52.162;4.500;2023-07-29T13:55:12;41.47;31.39;51.97;;
72686;Laerm;61365;52.162;4.500;2023-07-29T13:57:38;41.36;30.99;48.96;;
72686;Laerm;61365;52.162;4.500;2023-07-29T14:00:06;41.46;31.51;51.45;;
72686;Laerm;61365;52.162;4.500;2023-07-29T14:02:33;41.34;31.16;51.76;;